Time;durP1;ratioP1;P1;durP2;ratioP2;P2;SDS_P1;SDS_P2;PMS_P1;PMS_P2;Temp;Humidity;BMP_temperature;BMP_pressure;BME280_temperature;BME280_humidity;BME280_pressure;Samples;Min_cycle;Max_cycle;Signal;HPM_P1;HPM_P2
2021/03/05 00:00:51;;;;;;;2.30;1.40;;;;;;;;;;5051939;28;20017;-59
2021/03/05 00:03:17;;;;;;;2.40;1.30;;;;;;;;;;5068717;28;20044;-59
2021/03/05 00:05:43;;;;;;;2.50;1.30;;;;;;;;;;5070159;28;20418;-59
2021/03/05 00:08:10;;;;;;;1.58;1.25;;;;;;;;;;5072575;28;20036;-59
2021/03/05 00:10:37;;;;;;;2.65;1.60;;;;;;;;;;5064800;28;20119;-59
2021/03/05 00:13:03;;;;;;;5.47;1.60;;;;;;;;;;5053470;28;20029;-59
2021/03/05 00:15:31;;;;;;;2.58;1.60;;;;;;;;;;5054031;28;20516;-59
2021/03/05 00:17:57;;;;;;;5.53;2.03;;;;;;;;;;5052639;28;20035;-59
2021/03/05 00:20:24;;;;;;;2.40;1.73;;;;;;;;;;5054005;28;20025;-59
2021/03/05 00:22:50;;;;;;;2.15;1.50;;;;;;;;;;5075615;28;20074;-59
2021/03/05 00:25:16;;;;;;;4.22;1.65;;;;;;;;;;5077393;28;20071;-59
2021/03/05 00:27:42;;;;;;;3.13;2.08;;;;;;;;;;5061335;28;20050;-59
2021/03/05 00:30:09;;;;;;;5.10;2.00;;;;;;;;;;5063703;28;20119;-59
2021/03/05 00:32:35;;;;;;;2.72;2.05;;;;;;;;;;5076760;28;20024;-59
2021/03/05 00:35:02;;;;;;;2.90;2.03;;;;;;;;;;5076822;28;20036;-59
2021/03/05 00:37:28;;;;;;;2.40;1.65;;;;;;;;;;5074865;28;20056;-59
2021/03/05 00:39:54;;;;;;;2.97;1.77;;;;;;;;;;5076667;28;20065;-59
2021/03/05 00:42:20;;;;;;;3.28;1.77;;;;;;;;;;5069127;28;20050;-59
2021/03/05 00:44:46;;;;;;;1.88;1.63;;;;;;;;;;5056565;28;20078;-59
2021/03/05 00:47:11;;;;;;;2.13;1.60;;;;;;;;;;5057171;28;20029;-59
2021/03/05 00:49:37;;;;;;;1.70;1.60;;;;;;;;;;5056499;28;20033;-59
2021/03/05 00:52:04;;;;;;;4.75;1.70;;;;;;;;;;5056584;28;20020;-59
2021/03/05 00:54:30;;;;;;;2.38;1.48;;;;;;;;;;5055255;28;20124;-59
2021/03/05 00:56:56;;;;;;;7.05;1.77;;;;;;;;;;5056203;28;20104;-59
2021/03/05 00:59:22;;;;;;;2.38;1.73;;;;;;;;;;5074228;28;20021;-59
2021/03/05 01:01:48;;;;;;;2.78;1.75;;;;;;;;;;5074512;28;20032;-59
2021/03/05 01:04:14;;;;;;;4.00;2.17;;;;;;;;;;5076162;28;20020;-59
2021/03/05 01:06:40;;;;;;;2.92;1.95;;;;;;;;;;5075902;28;20052;-59
2021/03/05 01:09:07;;;;;;;4.55;1.92;;;;;;;;;;5074109;28;20017;-59
2021/03/05 01:11:33;;;;;;;3.25;1.92;;;;;;;;;;5076388;28;20033;-59
2021/03/05 01:13:59;;;;;;;3.22;1.70;;;;;;;;;;5076042;28;20035;-59
2021/03/05 01:16:25;;;;;;;5.30;2.38;;;;;;;;;;5074840;28;20024;-59
2021/03/05 01:18:51;;;;;;;3.65;1.92;;;;;;;;;;5074016;28;20025;-59
2021/03/05 01:21:17;;;;;;;3.65;2.10;;;;;;;;;;5073353;28;20031;-59
2021/03/05 01:23:43;;;;;;;3.85;2.25;;;;;;;;;;5064524;28;20450;-59
2021/03/05 01:26:10;;;;;;;3.00;1.73;;;;;;;;;;5063986;28;20104;-59
2021/03/05 01:28:36;;;;;;;3.60;2.03;;;;;;;;;;5054136;28;20028;-59
2021/03/05 01:31:03;;;;;;;6.82;2.65;;;;;;;;;;5055302;28;20041;-59
2021/03/05 01:33:29;;;;;;;4.75;2.17;;;;;;;;;;5055746;28;20021;-59
2021/03/05 01:35:55;;;;;;;3.67;2.13;;;;;;;;;;5054324;28;20371;-59
2021/03/05 01:38:21;;;;;;;2.97;2.10;;;;;;;;;;5055472;28;20033;-59
2021/03/05 01:40:47;;;;;;;4.00;2.38;;;;;;;;;;5055388;28;20071;-59
2021/03/05 01:43:15;;;;;;;6.18;2.50;;;;;;;;;;5055181;28;20025;-59
2021/03/05 01:45:42;;;;;;;3.80;2.03;;;;;;;;;;5054189;28;20130;-59
2021/03/05 01:48:12;;;;;;;5.30;2.22;;;;;;;;;;5053994;28;20025;-59
2021/03/05 01:50:58;;;;;;;3.92;2.53;;;;;;;;;;5054092;28;20343;-59
2021/03/05 01:53:24;;;;;;;4.07;2.40;;;;;;;;;;5055241;28;20324;-59
2021/03/05 01:55:51;;;;;;;3.90;2.55;;;;;;;;;;5055101;28;20044;-59
2021/03/05 01:58:17;;;;;;;7.10;2.00;;;;;;;;;;5072616;28;20043;-59
2021/03/05 02:00:44;;;;;;;4.30;2.00;;;;;;;;;;5074818;28;20073;-59
2021/03/05 02:03:10;;;;;;;6.18;2.35;;;;;;;;;;5060812;28;20656;-59
2021/03/05 02:05:37;;;;;;;2.90;2.28;;;;;;;;;;5055240;28;20043;-59
2021/03/05 02:08:03;;;;;;;3.65;1.83;;;;;;;;;;5069690;28;20056;-59
2021/03/05 02:10:29;;;;;;;5.30;1.70;;;;;;;;;;5075010;28;20037;-59
2021/03/05 02:12:56;;;;;;;6.55;3.25;;;;;;;;;;5073375;28;20078;-59
2021/03/05 02:15:22;;;;;;;6.90;2.90;;;;;;;;;;5074796;28;20439;-59
2021/03/05 02:17:56;;;;;;;5.68;2.55;;;;;;;;;;5074201;28;20028;-59
2021/03/05 02:20:30;;;;;;;3.33;2.40;;;;;;;;;;5058763;28;20032;-59
2021/03/05 02:23:10;;;;;;;4.53;2.70;;;;;;;;;;5058390;28;20070;-59
2021/03/05 02:26:03;;;;;;;5.68;2.63;;;;;;;;;;5053587;28;20337;-59
2021/03/05 02:28:42;;;;;;;3.30;2.55;;;;;;;;;;5054570;28;20115;-59
2021/03/05 02:31:14;;;;;;;7.60;2.95;;;;;;;;;;5054218;28;20033;-59
2021/03/05 02:33:40;;;;;;;4.88;3.03;;;;;;;;;;5054424;28;20025;-59
2021/03/05 02:36:08;;;;;;;6.60;3.38;;;;;;;;;;5053230;28;20040;-59
2021/03/05 02:38:35;;;;;;;6.45;2.78;;;;;;;;;;5054329;28;20036;-59
2021/03/05 02:41:03;;;;;;;5.50;3.15;;;;;;;;;;5054348;28;20468;-59
2021/03/05 02:43:29;;;;;;;6.97;3.00;;;;;;;;;;5053388;28;20413;-59
2021/03/05 02:45:57;;;;;;;5.78;2.75;;;;;;;;;;5074240;28;20517;-59
2021/03/05 02:48:28;;;;;;;6.05;3.40;;;;;;;;;;5056254;28;20033;-59
2021/03/05 02:50:55;;;;;;;8.18;4.30;;;;;;;;;;5054483;28;20044;-59
2021/03/05 02:53:23;;;;;;;9.77;5.00;;;;;;;;;;5054369;28;20052;-59
2021/03/05 02:55:53;;;;;;;8.10;4.75;;;;;;;;;;5053948;28;20082;-59
2021/03/05 02:58:21;;;;;;;14.15;6.28;;;;;;;;;;5053759;28;20078;-59
2021/03/05 03:00:47;;;;;;;12.98;6.22;;;;;;;;;;5054096;28;20134;-59
2021/03/05 03:03:13;;;;;;;8.80;4.38;;;;;;;;;;5054127;28;20119;-59
2021/03/05 03:05:40;;;;;;;10.43;5.65;;;;;;;;;;5054953;28;20075;-59
2021/03/05 03:08:08;;;;;;;15.75;6.60;;;;;;;;;;5053842;28;20025;-59
2021/03/05 03:10:35;;;;;;;14.32;6.55;;;;;;;;;;5053669;28;20074;-59
2021/03/05 03:13:02;;;;;;;19.58;7.13;;;;;;;;;;5052542;28;20021;-59
2021/03/05 03:15:30;;;;;;;15.25;7.35;;;;;;;;;;5062040;28;20162;-59
2021/03/05 03:17:57;;;;;;;15.70;6.82;;;;;;;;;;5071945;28;20052;-59
2021/03/05 03:20:24;;;;;;;17.73;7.82;;;;;;;;;;5073242;28;20574;-59
2021/03/05 03:22:50;;;;;;;16.95;6.88;;;;;;;;;;5066640;28;20020;-58
2021/03/05 03:25:16;;;;;;;12.77;6.40;;;;;;;;;;5073361;28;20028;-58
2021/03/05 03:27:42;;;;;;;17.13;8.57;;;;;;;;;;5071737;28;20047;-59
2021/03/05 03:30:13;;;;;;;15.98;8.15;;;;;;;;;;5072143;28;20474;-59
2021/03/05 03:32:39;;;;;;;;;;;;;;;;;;5073754;28;20036;-58
2021/03/05 03:35:08;;;;;;;14.63;6.95;;;;;;;;;;5057780;28;19913;-59
2021/03/05 03:37:35;;;;;;;15.82;7.30;;;;;;;;;;5059259;28;20031;-59
2021/03/05 03:40:01;;;;;;;14.38;6.90;;;;;;;;;;5073467;28;20031;-58
2021/03/05 03:42:28;;;;;;;15.57;7.35;;;;;;;;;;5066019;28;20032;-58
2021/03/05 03:44:54;;;;;;;15.52;7.53;;;;;;;;;;5071634;28;20331;-59
2021/03/05 03:47:24;;;;;;;13.77;7.00;;;;;;;;;;5071086;28;20050;-58
2021/03/05 03:49:56;;;;;;;20.15;6.82;;;;;;;;;;5073419;28;20036;-58
2021/03/05 03:52:25;;;;;;;14.57;7.18;;;;;;;;;;5072931;28;20353;-58
2021/03/05 03:54:51;;;;;;;15.27;6.93;;;;;;;;;;5072718;28;20039;-59
2021/03/05 03:57:17;;;;;;;16.92;7.45;;;;;;;;;;5069339;28;20033;-58
2021/03/05 03:59:44;;;;;;;17.85;8.90;;;;;;;;;;5054270;28;20515;-59
2021/03/05 04:02:10;;;;;;;17.23;8.10;;;;;;;;;;5053061;28;20090;-58
2021/03/05 04:04:38;;;;;;;16.35;7.18;;;;;;;;;;5053327;28;20025;-59
2021/03/05 04:07:07;;;;;;;12.05;6.18;;;;;;;;;;5053302;28;20037;-58
2021/03/05 04:09:35;;;;;;;13.73;6.60;;;;;;;;;;5071197;28;20416;-59
2021/03/05 04:12:01;;;;;;;12.95;6.45;;;;;;;;;;5053687;28;20040;-58
2021/03/05 04:14:27;;;;;;;12.40;6.30;;;;;;;;;;5071409;28;20032;-58
2021/03/05 04:16:56;;;;;;;19.85;8.10;;;;;;;;;;5072890;28;20066;-58
2021/03/05 04:19:23;;;;;;;16.05;7.22;;;;;;;;;;5070139;28;20018;-58
2021/03/05 04:21:50;;;;;;;11.45;6.38;;;;;;;;;;5072643;28;20028;-58
2021/03/05 04:24:16;;;;;;;14.07;6.50;;;;;;;;;;5070486;28;20037;-58
2021/03/05 04:26:42;;;;;;;10.77;6.18;;;;;;;;;;5072860;28;20413;-58
2021/03/05 04:29:08;;;;;;;11.65;6.35;;;;;;;;;;5071099;28;20028;-58
2021/03/05 04:31:34;;;;;;;11.73;5.57;;;;;;;;;;5071229;28;20359;-59
2021/03/05 04:34:00;;;;;;;14.93;6.93;;;;;;;;;;5070695;28;20044;-58
2021/03/05 04:36:26;;;;;;;13.02;6.35;;;;;;;;;;5072728;28;20442;-58
2021/03/05 04:38:52;;;;;;;14.13;6.95;;;;;;;;;;5070806;28;20021;-58
2021/03/05 04:41:18;;;;;;;18.25;6.05;;;;;;;;;;5070923;28;20474;-59
2021/03/05 04:43:44;;;;;;;11.40;5.55;;;;;;;;;;5066509;28;20036;-58
2021/03/05 04:46:10;;;;;;;9.55;5.13;;;;;;;;;;5061548;28;20023;-58
2021/03/05 04:48:36;;;;;;;15.35;5.93;;;;;;;;;;5060479;28;20450;-58
2021/03/05 04:51:02;;;;;;;10.93;5.90;;;;;;;;;;5060173;28;20125;-59
2021/03/05 04:53:28;;;;;;;11.32;4.95;;;;;;;;;;5060871;28;20163;-58
2021/03/05 04:55:54;;;;;;;6.30;3.95;;;;;;;;;;5061746;28;20469;-58
2021/03/05 04:58:20;;;;;;;7.60;3.75;;;;;;;;;;5061082;28;20031;-58
2021/03/05 05:00:46;;;;;;;8.65;4.13;;;;;;;;;;5065677;28;20051;-58
2021/03/05 05:03:12;;;;;;;9.55;4.95;;;;;;;;;;5053126;28;20036;-59
2021/03/05 05:05:39;;;;;;;6.57;3.67;;;;;;;;;;5053453;28;20040;-59
2021/03/05 05:08:06;;;;;;;9.38;4.28;;;;;;;;;;5059669;28;20442;-58
2021/03/05 05:10:32;;;;;;;12.40;4.78;;;;;;;;;;5074543;28;20062;-59
2021/03/05 05:12:58;;;;;;;7.35;4.10;;;;;;;;;;5074039;28;20017;-59
2021/03/05 05:15:24;;;;;;;9.25;4.65;;;;;;;;;;5076107;28;20107;-58
2021/03/05 05:17:50;;;;;;;8.98;3.60;;;;;;;;;;5075511;28;20056;-59
2021/03/05 05:20:16;;;;;;;10.55;4.35;;;;;;;;;;5075621;28;20123;-58
2021/03/05 05:22:42;;;;;;;10.05;4.95;;;;;;;;;;5069681;28;20024;-58
2021/03/05 05:25:08;;;;;;;8.55;4.13;;;;;;;;;;5055821;28;20053;-58
2021/03/05 05:27:35;;;;;;;8.52;4.18;;;;;;;;;;5070368;28;20104;-59
2021/03/05 05:30:01;;;;;;;8.32;4.78;;;;;;;;;;5074144;28;20029;-58
2021/03/05 05:32:27;;;;;;;9.43;4.78;;;;;;;;;;5074109;28;20033;-59
2021/03/05 05:34:53;;;;;;;5.95;3.55;;;;;;;;;;5072994;28;20369;-58
2021/03/05 05:37:19;;;;;;;6.28;3.97;;;;;;;;;;5059815;28;20237;-58
2021/03/05 05:39:45;;;;;;;8.63;4.53;;;;;;;;;;5064988;28;20036;-58
2021/03/05 05:42:11;;;;;;;9.82;5.30;;;;;;;;;;5063363;28;20366;-58
2021/03/05 05:44:37;;;;;;;8.32;4.43;;;;;;;;;;5063385;28;20025;-59
2021/03/05 05:47:03;;;;;;;9.23;4.55;;;;;;;;;;5069497;28;20024;-58
2021/03/05 05:49:30;;;;;;;8.15;4.03;;;;;;;;;;5056231;28;20417;-58
2021/03/05 05:51:58;;;;;;;7.28;3.92;;;;;;;;;;5055243;28;20025;-58
2021/03/05 05:54:24;;;;;;;12.77;4.65;;;;;;;;;;5058160;28;20039;-59
2021/03/05 05:56:52;;;;;;;6.97;3.80;;;;;;;;;;5055184;28;20021;-59
2021/03/05 05:59:18;;;;;;;9.00;3.90;;;;;;;;;;5070512;28;20116;-58
2021/03/05 06:01:45;;;;;;;7.28;3.85;;;;;;;;;;5054592;28;20364;-58
2021/03/05 06:04:12;;;;;;;10.32;4.65;;;;;;;;;;5061242;28;20025;-58
2021/03/05 06:06:38;;;;;;;8.18;4.15;;;;;;;;;;5073569;28;20114;-58
2021/03/05 06:09:04;;;;;;;6.55;3.10;;;;;;;;;;5074469;28;20112;-58
2021/03/05 06:11:35;;;;;;;7.45;3.45;;;;;;;;;;5062806;28;20037;-59
2021/03/05 06:14:01;;;;;;;5.35;2.95;;;;;;;;;;5055058;28;20025;-58
2021/03/05 06:16:27;;;;;;;4.32;3.03;;;;;;;;;;5055563;28;20036;-58
2021/03/05 06:18:54;;;;;;;7.82;3.30;;;;;;;;;;5053958;28;20469;-59
2021/03/05 06:21:35;;;;;;;6.35;3.10;;;;;;;;;;5063566;28;20529;-58
2021/03/05 06:24:03;;;;;;;4.60;3.13;;;;;;;;;;5074665;28;20032;-58
2021/03/05 06:26:29;;;;;;;5.28;2.60;;;;;;;;;;5066355;28;20029;-58
2021/03/05 06:29:02;;;;;;;7.38;3.05;;;;;;;;;;5053023;28;20413;-59
2021/03/05 06:31:28;;;;;;;4.32;2.42;;;;;;;;;;5060009;28;20033;-58
2021/03/05 06:33:58;;;;;;;5.65;2.80;;;;;;;;;;5069265;28;20033;-59
2021/03/05 06:36:24;;;;;;;4.63;2.97;;;;;;;;;;5072207;28;20020;-59
2021/03/05 06:38:50;;;;;;;5.03;3.05;;;;;;;;;;5057957;28;20300;-58
2021/03/05 06:41:30;;;;;;;3.97;2.65;;;;;;;;;;5074296;28;20027;-59
2021/03/05 06:43:59;;;;;;;3.35;2.00;;;;;;;;;;5072012;28;20339;-59
2021/03/05 06:46:43;;;;;;;3.92;2.30;;;;;;;;;;5074170;28;20051;-59
2021/03/05 06:49:10;;;;;;;4.07;1.90;;;;;;;;;;5073878;28;20073;-59
2021/03/05 06:51:37;;;;;;;3.67;2.50;;;;;;;;;;5074748;28;20427;-59
2021/03/05 06:54:04;;;;;;;4.35;1.77;;;;;;;;;;5073696;28;20150;-59
2021/03/05 06:56:30;;;;;;;2.65;1.60;;;;;;;;;;5074195;28;20025;-59
2021/03/05 06:58:59;;;;;;;1.98;1.63;;;;;;;;;;5071046;28;20129;-59
2021/03/05 07:01:25;;;;;;;2.50;1.77;;;;;;;;;;5054099;28;20358;-59
2021/03/05 07:04:04;;;;;;;2.78;1.42;;;;;;;;;;5052785;28;20033;-59
2021/03/05 07:06:30;;;;;;;1.70;1.60;;;;;;;;;;5053789;28;20032;-59
2021/03/05 07:08:56;;;;;;;1.67;1.50;;;;;;;;;;5070694;28;20029;-59
2021/03/05 07:11:34;;;;;;;3.22;1.70;;;;;;;;;;5073829;28;20033;-59
2021/03/05 07:14:00;;;;;;;2.05;1.52;;;;;;;;;;5072338;28;20020;-59
2021/03/05 07:16:27;;;;;;;2.63;1.88;;;;;;;;;;5073799;28;20021;-59
2021/03/05 07:18:53;;;;;;;2.63;1.67;;;;;;;;;;5070496;28;20023;-59
2021/03/05 07:21:20;;;;;;;2.58;1.40;;;;;;;;;;5072277;28;20336;-59
2021/03/05 07:23:47;;;;;;;4.13;1.55;;;;;;;;;;5072924;28;20059;-59
2021/03/05 07:26:14;;;;;;;2.85;1.83;;;;;;;;;;5055218;28;20132;-59
2021/03/05 07:28:44;;;;;;;2.72;1.55;;;;;;;;;;5054513;28;20087;-59
2021/03/05 07:31:10;;;;;;;1.45;1.35;;;;;;;;;;5054517;28;20041;-59
2021/03/05 07:33:38;;;;;;;2.92;1.88;;;;;;;;;;5052011;28;20025;-59
2021/03/05 07:36:09;;;;;;;2.97;1.88;;;;;;;;;;5061386;28;20028;-59
2021/03/05 07:38:39;;;;;;;2.70;2.05;;;;;;;;;;5073174;28;20021;-59
2021/03/05 07:41:05;;;;;;;;;;;;;;;;;;5072186;28;20031;-59
2021/03/05 07:43:31;;;;;;;2.60;1.70;;;;;;;;;;5073514;28;19912;-59
2021/03/05 07:45:58;;;;;;;2.10;1.20;;;;;;;;;;5073024;28;20024;-59
2021/03/05 07:48:24;;;;;;;2.78;1.95;;;;;;;;;;5061676;28;20033;-59
2021/03/05 07:50:51;;;;;;;2.88;1.48;;;;;;;;;;5052826;28;20044;-59
2021/03/05 07:53:17;;;;;;;3.50;2.15;;;;;;;;;;5053290;28;20100;-59
2021/03/05 07:55:43;;;;;;;3.42;1.95;;;;;;;;;;5053084;28;20126;-59
2021/03/05 07:58:10;;;;;;;4.30;2.67;;;;;;;;;;5052739;28;20508;-59
2021/03/05 08:00:47;;;;;;;2.17;1.70;;;;;;;;;;5051574;28;20028;-59
2021/03/05 08:03:13;;;;;;;2.47;1.70;;;;;;;;;;5068938;28;20024;-59
2021/03/05 08:05:43;;;;;;;3.83;2.05;;;;;;;;;;5071490;28;20082;-59
2021/03/05 08:08:11;;;;;;;3.05;2.15;;;;;;;;;;5071040;28;20020;-59
2021/03/05 08:10:41;;;;;;;2.88;2.00;;;;;;;;;;5072505;28;20082;-59
2021/03/05 08:13:07;;;;;;;;;;;;;;;;;;5071409;28;20024;-59
2021/03/05 08:15:33;;;;;;;3.42;2.20;;;;;;;;;;5068046;28;19909;-59
2021/03/05 08:17:59;;;;;;;3.13;2.00;;;;;;;;;;5061559;28;20025;-59
2021/03/05 08:20:25;;;;;;;6.55;2.33;;;;;;;;;;5058897;28;20500;-59
2021/03/05 08:22:57;;;;;;;4.60;2.35;;;;;;;;;;5061307;28;20028;-59
2021/03/05 08:25:27;;;;;;;4.35;2.58;;;;;;;;;;5064495;28;20251;-59
2021/03/05 08:27:53;;;;;;;6.50;3.15;;;;;;;;;;5057703;28;20025;-59
2021/03/05 08:30:35;;;;;;;6.03;2.95;;;;;;;;;;5071577;28;20036;-59
2021/03/05 08:33:01;;;;;;;5.72;2.67;;;;;;;;;;5065579;28;20029;-59
2021/03/05 08:35:30;;;;;;;6.20;3.13;;;;;;;;;;5067496;28;20053;-58
2021/03/05 08:37:56;;;;;;;8.32;3.60;;;;;;;;;;5060206;28;20067;-59
2021/03/05 08:40:24;;;;;;;6.88;3.05;;;;;;;;;;5068068;28;20115;-59
2021/03/05 08:42:51;;;;;;;4.95;3.05;;;;;;;;;;5065857;28;20036;-59
2021/03/05 08:45:31;;;;;;;6.55;2.80;;;;;;;;;;5063132;28;20028;-59
2021/03/05 08:48:01;;;;;;;6.07;3.20;;;;;;;;;;5063573;28;20025;-59
2021/03/05 08:50:31;;;;;;;7.85;3.65;;;;;;;;;;5064766;28;20482;-59
2021/03/05 08:53:05;;;;;;;6.35;3.35;;;;;;;;;;5069633;28;20037;-59
2021/03/05 08:55:31;;;;;;;7.05;3.28;;;;;;;;;;5062160;28;20476;-59
2021/03/05 08:57:58;;;;;;;5.65;3.30;;;;;;;;;;5057411;28;20079;-59
2021/03/05 09:00:28;;;;;;;9.50;3.45;;;;;;;;;;5074168;28;20027;-59
2021/03/05 09:03:03;;;;;;;8.95;3.63;;;;;;;;;;5070437;28;20064;-59
2021/03/05 09:05:32;;;;;;;7.82;3.63;;;;;;;;;;5061442;28;20082;-59
2021/03/05 09:07:58;;;;;;;6.55;3.42;;;;;;;;;;5066077;28;20028;-59
2021/03/05 09:10:58;;;;;;;8.95;3.70;;;;;;;;;;5063458;28;20525;-59
2021/03/05 09:13:29;;;;;;;5.43;2.97;;;;;;;;;;5061704;28;20047;-59
2021/03/05 09:15:57;;;;;;;9.40;3.50;;;;;;;;;;5063421;28;20063;-59
2021/03/05 09:18:24;;;;;;;6.30;3.45;;;;;;;;;;5045843;28;20044;-59
2021/03/05 09:21:01;;;;;;;6.93;3.17;;;;;;;;;;5061245;28;20060;-59
2021/03/05 09:23:32;;;;;;;6.00;3.05;;;;;;;;;;5063889;28;20026;-58
2021/03/05 09:26:00;;;;;;;7.07;3.30;;;;;;;;;;5064059;28;20037;-59
2021/03/05 09:28:27;;;;;;;9.00;4.05;;;;;;;;;;5062214;28;20028;-59
2021/03/05 09:30:54;;;;;;;6.43;3.83;;;;;;;;;;5064118;28;20028;-59
2021/03/05 09:33:30;;;;;;;9.02;3.42;;;;;;;;;;5062041;28;20029;-59
2021/03/05 09:36:04;;;;;;;6.38;3.40;;;;;;;;;;5061079;28;20470;-59
2021/03/05 09:38:30;;;;;;;8.38;4.05;;;;;;;;;;5059681;28;20116;-59
2021/03/05 09:41:09;;;;;;;8.70;3.15;;;;;;;;;;5062241;28;20033;-59
2021/03/05 09:43:35;;;;;;;9.43;3.90;;;;;;;;;;5046997;28;20041;-59
2021/03/05 09:46:01;;;;;;;6.55;3.35;;;;;;;;;;5044787;28;20033;-58
2021/03/05 09:48:31;;;;;;;5.90;3.30;;;;;;;;;;5058476;28;20516;-59
2021/03/05 09:50:58;;;;;;;5.55;3.15;;;;;;;;;;5060711;28;20120;-59
2021/03/05 09:53:26;;;;;;;6.32;3.50;;;;;;;;;;5054282;28;20031;-59
2021/03/05 09:56:00;;;;;;;7.88;3.65;;;;;;;;;;5061155;28;20059;-58
2021/03/05 09:58:26;;;;;;;6.82;3.40;;;;;;;;;;5062683;28;20028;-59
2021/03/05 10:00:53;;;;;;;9.65;3.85;;;;;;;;;;5067827;28;20335;-59
2021/03/05 10:03:19;;;;;;;6.80;3.65;;;;;;;;;;5064338;28;20137;-58
2021/03/05 10:05:46;;;;;;;4.88;2.95;;;;;;;;;;5065411;28;20029;-59
2021/03/05 10:08:22;;;;;;;4.57;3.00;;;;;;;;;;5064032;28;20032;-59
2021/03/05 10:11:07;;;;;;;6.53;3.22;;;;;;;;;;5063735;28;20063;-59
2021/03/05 10:13:52;;;;;;;7.45;3.30;;;;;;;;;;5064311;28;20056;-59
2021/03/05 10:16:25;;;;;;;6.70;3.08;;;;;;;;;;5064756;28;20052;-59
2021/03/05 10:18:53;;;;;;;6.10;2.67;;;;;;;;;;5063582;28;20035;-59
2021/03/05 10:21:20;;;;;;;7.65;3.60;;;;;;;;;;5060079;28;20524;-59
2021/03/05 10:23:46;;;;;;;4.65;2.88;;;;;;;;;;5074872;28;20028;-58
2021/03/05 10:26:23;;;;;;;8.73;2.90;;;;;;;;;;5074974;28;20031;-59
2021/03/05 10:29:08;;;;;;;8.25;4.00;;;;;;;;;;5058996;28;20025;-59
2021/03/05 10:31:44;;;;;;;6.03;3.08;;;;;;;;;;5057472;28;20454;-59
2021/03/05 10:34:20;;;;;;;6.63;3.22;;;;;;;;;;5059629;28;20064;-58
2021/03/05 10:36:46;;;;;;;5.47;2.90;;;;;;;;;;5063798;28;20024;-58
2021/03/05 10:39:12;;;;;;;9.77;3.17;;;;;;;;;;5061630;28;20036;-59
2021/03/05 10:41:38;;;;;;;5.95;3.53;;;;;;;;;;5071467;28;20390;-59
2021/03/05 10:44:04;;;;;;;8.05;4.00;;;;;;;;;;5072054;28;20073;-59
2021/03/05 10:46:30;;;;;;;7.05;3.05;;;;;;;;;;5065787;28;20029;-59
2021/03/05 10:48:56;;;;;;;8.68;3.22;;;;;;;;;;5063469;28;20024;-59
2021/03/05 10:51:22;;;;;;;9.70;3.75;;;;;;;;;;5063942;28;20044;-59
2021/03/05 10:53:48;;;;;;;5.18;2.90;;;;;;;;;;5063872;28;20033;-59
2021/03/05 10:56:16;;;;;;;9.05;3.75;;;;;;;;;;5063614;28;20032;-59
2021/03/05 10:58:42;;;;;;;8.45;3.35;;;;;;;;;;5062608;28;20103;-59
2021/03/05 11:01:08;;;;;;;6.30;3.25;;;;;;;;;;5062813;28;20025;-59
2021/03/05 11:03:34;;;;;;;7.85;3.58;;;;;;;;;;5065869;28;20489;-59
2021/03/05 11:06:00;;;;;;;6.70;3.45;;;;;;;;;;5062688;28;20036;-58
2021/03/05 11:08:26;;;;;;;4.57;2.58;;;;;;;;;;5064097;28;20025;-59
2021/03/05 11:10:52;;;;;;;6.75;3.53;;;;;;;;;;5061375;28;20044;-59
2021/03/05 11:13:18;;;;;;;9.13;3.47;;;;;;;;;;5061736;28;20032;-58
2021/03/05 11:15:44;;;;;;;11.65;3.03;;;;;;;;;;5061547;28;20024;-59
2021/03/05 11:18:10;;;;;;;9.38;4.25;;;;;;;;;;5063623;28;20024;-59
2021/03/05 11:20:36;;;;;;;8.35;3.60;;;;;;;;;;5060909;28;20464;-59
2021/03/05 11:23:02;;;;;;;4.72;2.78;;;;;;;;;;5065430;28;20036;-59
2021/03/05 11:25:28;;;;;;;5.28;3.20;;;;;;;;;;5059935;28;20079;-59
2021/03/05 11:27:54;;;;;;;7.20;3.17;;;;;;;;;;5061983;28;20513;-59
2021/03/05 11:30:20;;;;;;;5.63;3.08;;;;;;;;;;5070736;28;20491;-59
2021/03/05 11:32:47;;;;;;;5.50;3.03;;;;;;;;;;5067036;28;20467;-58
2021/03/05 11:35:14;;;;;;;4.85;3.10;;;;;;;;;;5070465;28;20020;-59
2021/03/05 11:37:40;;;;;;;8.85;3.88;;;;;;;;;;5067525;28;20464;-59
2021/03/05 11:40:07;;;;;;;5.53;3.08;;;;;;;;;;5053519;28;20466;-58
2021/03/05 11:42:33;;;;;;;8.32;3.00;;;;;;;;;;5053187;28;20047;-59
2021/03/05 11:45:04;;;;;;;6.25;2.78;;;;;;;;;;5054545;28;20036;-59
2021/03/05 11:47:30;;;;;;;6.05;3.13;;;;;;;;;;5054568;28;20556;-59
2021/03/05 11:49:56;;;;;;;6.22;3.22;;;;;;;;;;5062322;28;20028;-59
2021/03/05 11:52:22;;;;;;;7.03;3.30;;;;;;;;;;5062826;28;20044;-59
2021/03/05 11:54:48;;;;;;;5.00;3.13;;;;;;;;;;5069559;28;20470;-58
2021/03/05 11:57:14;;;;;;;9.30;3.20;;;;;;;;;;5063466;28;20035;-59
2021/03/05 11:59:40;;;;;;;5.57;3.28;;;;;;;;;;5053252;28;20107;-59
2021/03/05 12:02:06;;;;;;;6.65;3.42;;;;;;;;;;5062570;28;20037;-59
2021/03/05 12:04:33;;;;;;;6.05;3.50;;;;;;;;;;5061857;28;20063;-59
2021/03/05 12:06:59;;;;;;;4.50;2.90;;;;;;;;;;5061754;28;20028;-59
2021/03/05 12:09:25;;;;;;;6.15;3.28;;;;;;;;;;5060500;28;20025;-59
2021/03/05 12:11:51;;;;;;;7.85;3.65;;;;;;;;;;5069434;28;20025;-59
2021/03/05 12:14:17;;;;;;;6.90;3.20;;;;;;;;;;5067435;28;20339;-59
2021/03/05 12:16:43;;;;;;;6.88;3.95;;;;;;;;;;5052402;28;20033;-59
2021/03/05 12:19:09;;;;;;;7.78;3.20;;;;;;;;;;5055719;28;20051;-59
2021/03/05 12:21:36;;;;;;;5.75;2.90;;;;;;;;;;5058392;28;20021;-59
2021/03/05 12:24:02;;;;;;;9.00;3.38;;;;;;;;;;5069977;28;20357;-58
2021/03/05 12:26:28;;;;;;;7.53;3.58;;;;;;;;;;5058052;28;20028;-59
2021/03/05 12:28:54;;;;;;;6.30;3.10;;;;;;;;;;5058859;28;20021;-59
2021/03/05 12:31:20;;;;;;;6.88;3.28;;;;;;;;;;5071173;28;20033;-59
2021/03/05 12:33:46;;;;;;;7.28;3.47;;;;;;;;;;5071775;28;20043;-59
2021/03/05 12:36:13;;;;;;;5.32;3.10;;;;;;;;;;5071864;28;20021;-59
2021/03/05 12:38:41;;;;;;;6.43;3.47;;;;;;;;;;5070096;28;20032;-59
2021/03/05 12:41:07;;;;;;;5.60;3.40;;;;;;;;;;5056718;28;20025;-59
2021/03/05 12:43:33;;;;;;;8.10;3.15;;;;;;;;;;5053250;28;20025;-59
2021/03/05 12:46:00;;;;;;;8.75;4.03;;;;;;;;;;5052661;28;20021;-59
2021/03/05 12:48:26;;;;;;;7.85;4.20;;;;;;;;;;5054268;28;20044;-59
2021/03/05 12:50:52;;;;;;;7.03;3.45;;;;;;;;;;5062793;28;20032;-59
2021/03/05 12:53:18;;;;;;;8.48;3.85;;;;;;;;;;5058474;28;20029;-59
2021/03/05 12:55:44;;;;;;;8.48;3.90;;;;;;;;;;5063380;28;20393;-59
2021/03/05 12:58:10;;;;;;;7.70;4.10;;;;;;;;;;5059157;28;20468;-59
2021/03/05 13:00:36;;;;;;;6.18;3.20;;;;;;;;;;5050692;28;20033;-59
2021/03/05 13:03:02;;;;;;;7.63;4.43;;;;;;;;;;5064491;28;20029;-59
2021/03/05 13:05:28;;;;;;;8.20;4.15;;;;;;;;;;5058480;28;20098;-59
2021/03/05 13:07:54;;;;;;;11.20;4.15;;;;;;;;;;5071146;28;20025;-59
2021/03/05 13:10:20;;;;;;;8.43;3.72;;;;;;;;;;5055913;28;20116;-59
2021/03/05 13:12:46;;;;;;;5.70;3.22;;;;;;;;;;5055068;28;20044;-59
2021/03/05 13:15:12;;;;;;;7.35;3.60;;;;;;;;;;5052727;28;20342;-59
2021/03/05 13:17:38;;;;;;;5.97;3.40;;;;;;;;;;5071458;28;20046;-58
2021/03/05 13:20:05;;;;;;;7.70;4.00;;;;;;;;;;5062690;28;20025;-59
2021/03/05 13:22:31;;;;;;;6.75;3.85;;;;;;;;;;5069277;28;20047;-59
2021/03/05 13:24:57;;;;;;;9.55;4.15;;;;;;;;;;5062564;28;20446;-59
2021/03/05 13:27:23;;;;;;;7.07;3.58;;;;;;;;;;5074075;28;20082;-59
2021/03/05 13:29:49;;;;;;;7.47;3.88;;;;;;;;;;5072504;28;20048;-59
2021/03/05 13:32:15;;;;;;;5.55;2.67;;;;;;;;;;5075721;28;20027;-59
2021/03/05 13:34:41;;;;;;;7.35;3.13;;;;;;;;;;5068513;28;20158;-59
2021/03/05 13:37:07;;;;;;;10.02;3.78;;;;;;;;;;5063768;28;20025;-58
2021/03/05 13:39:33;;;;;;;7.47;3.60;;;;;;;;;;5065101;28;20037;-58
2021/03/05 13:41:59;;;;;;;8.52;4.18;;;;;;;;;;5065702;28;20364;-58
2021/03/05 13:44:25;;;;;;;8.07;3.67;;;;;;;;;;5057828;28;20028;-58
2021/03/05 13:46:51;;;;;;;5.25;3.20;;;;;;;;;;5071564;28;20024;-58
2021/03/05 13:49:17;;;;;;;8.45;3.63;;;;;;;;;;5069256;28;20040;-59
2021/03/05 13:51:43;;;;;;;7.82;3.83;;;;;;;;;;5062949;28;20059;-59
2021/03/05 13:54:10;;;;;;;9.13;3.83;;;;;;;;;;5061159;28;20021;-60
2021/03/05 13:56:36;;;;;;;10.02;3.53;;;;;;;;;;5065870;28;20035;-60
2021/03/05 13:59:02;;;;;;;7.70;3.70;;;;;;;;;;5062419;28;20107;-59
2021/03/05 14:01:28;;;;;;;9.00;4.00;;;;;;;;;;5061315;28;20112;-59
2021/03/05 14:03:54;;;;;;;7.88;3.88;;;;;;;;;;5060874;28;20021;-59
2021/03/05 14:06:20;;;;;;;7.15;3.53;;;;;;;;;;5062516;28;20078;-59
2021/03/05 14:08:46;;;;;;;7.85;3.72;;;;;;;;;;5057720;28;20033;-60
2021/03/05 14:11:12;;;;;;;8.70;3.83;;;;;;;;;;5062299;28;20040;-59
2021/03/05 14:13:39;;;;;;;7.97;3.47;;;;;;;;;;5054977;28;20021;-59
2021/03/05 14:16:05;;;;;;;9.40;4.05;;;;;;;;;;5067333;28;20162;-59
2021/03/05 14:18:31;;;;;;;6.85;3.70;;;;;;;;;;5064632;28;20108;-59
2021/03/05 14:20:57;;;;;;;11.65;3.83;;;;;;;;;;5054657;28;20021;-59
2021/03/05 14:23:23;;;;;;;7.93;3.80;;;;;;;;;;5058453;28;20025;-60
2021/03/05 14:25:50;;;;;;;6.07;2.92;;;;;;;;;;5054113;28;20025;-59
2021/03/05 14:28:16;;;;;;;10.20;4.13;;;;;;;;;;5053063;28;20075;-59
2021/03/05 14:30:42;;;;;;;8.05;4.07;;;;;;;;;;5070073;28;20040;-59
2021/03/05 14:33:09;;;;;;;10.57;4.32;;;;;;;;;;5065590;28;20096;-59
2021/03/05 14:35:35;;;;;;;8.10;3.90;;;;;;;;;;5061059;28;20024;-59
2021/03/05 14:38:01;;;;;;;9.23;4.53;;;;;;;;;;5063799;28;20021;-59
2021/03/05 14:40:27;;;;;;;12.25;4.40;;;;;;;;;;5065042;28;20034;-60
2021/03/05 14:42:53;;;;;;;8.60;4.38;;;;;;;;;;5066401;28;20032;-59